PWSweather.com
Personal Weather Stations
Station Observations
EA5BZ
Nuevo Altabix, ElcheES

Nuevo AltabixElcheES

Lat: 38.276, Lon: -0.671

Elevation: 0

Station Type: Davis Vantage Pro 2

http://meteoelche.es

High Low Average
Temperature 76.6°F24.8°C 52.2°F11.2°C 62.7°F17.1°C
Dew Point 51.1°F10.6°C 41.2°F5.1°C 45.5°F7.5°C
Winds 17.4 mph 28.0 kmh 1.8 mph 2.9 kmh 9.0 mph SW14.5 kmh SW
Wind Gusts 24.6 mph39.6 kmh 4.0 mph6.4 kmh 13.0 mph20.9 kmh
Humidity 85% 35% 56%
Pressure 30.39 in1029.1 mb 30.26 in1024.7 mb -
Precipitation 0.00 in0.0 mm - -
Hour Temp Dew Point Humidity Winds Wind Gusts Pressure Precip Precip Rate Daily Precip Total
12:00 AM 55.9°F13.3°C 51.1°F10.6°C 84% 5.8 mph W9.3 kmh W 8.5 mph13.7 kmh 30.39 in1029.1 mb 0.00 in0.0 mm 0.00 in0.0 mm 0.00 in0.0 mm
12:05 AM 55.8°F13.2°C 51.0°F10.6°C 84% 6.0 mph W9.7 kmh W 9.2 mph14.8 kmh 30.39 in1029.1 mb 0.00 in0.0 mm 0.00 in0.0 mm 0.00 in0.0 mm
12:10 AM 55.6°F13.1°C 50.8°F10.4°C 84% 6.5 mph WSW10.5 kmh WSW 9.6 mph15.4 kmh 30.39 in1029.1 mb 0.00 in0.0 mm 0.00 in0.0 mm 0.00 in0.0 mm
12:15 AM 55.3°F12.9°C 50.6°F10.3°C 84% 6.8 mph WSW10.9 kmh WSW 9.2 mph14.8 kmh 30.39 in1029.1 mb 0.00 in0.0 mm 0.00 in0.0 mm 0.00 in0.0 mm
12:20 AM 55.2°F12.9°C 50.5°F10.3°C 84% 7.6 mph WSW12.2 kmh WSW 10.3 mph16.6 kmh 30.39 in1029.1 mb 0.00 in0.0 mm 0.00 in0.0 mm 0.00 in0.0 mm
12:25 AM 55.1°F12.8°C 50.4°F10.2°C 84% 7.6 mph WSW12.2 kmh WSW 9.6 mph15.4 kmh 30.39 in1029.1 mb 0.00 in0.0 mm 0.00 in0.0 mm 0.00 in0.0 mm
12:30 AM 55.0°F12.8°C 50.3°F10.2°C 84% 7.6 mph WSW12.2 kmh WSW 10.7 mph17.2 kmh 30.39 in1029.1 mb 0.00 in0.0 mm 0.00 in0.0 mm 0.00 in0.0 mm
12:35 AM 54.9°F12.7°C 50.3°F10.2°C 85% 7.6 mph WSW12.2 kmh WSW 9.2 mph14.8 kmh 30.39 in1029.1 mb 0.00 in0.0 mm 0.00 in0.0 mm 0.00 in0.0 mm
12:40 AM 54.9°F12.7°C 50.4°F10.2°C 85% 7.6 mph WSW12.2 kmh WSW 10.7 mph17.2 kmh 30.39 in1029.1 mb 0.00 in0.0 mm 0.00 in0.0 mm 0.00 in0.0 mm
12:45 AM 54.9°F12.7°C 50.4°F10.2°C 85% 7.6 mph WSW12.2 kmh WSW 8.7 mph14.0 kmh 30.39 in1029.1 mb 0.00 in0.0 mm 0.00 in0.0 mm 0.00 in0.0 mm
12:50 AM 54.9°F12.7°C 50.4°F10.2°C 85% 7.6 mph W12.2 kmh W 9.2 mph14.8 kmh 30.39 in1029.1 mb 0.00 in0.0 mm 0.00 in0.0 mm 0.00 in0.0 mm
12:55 AM 54.9°F12.7°C 50.4°F10.2°C 85% 7.5 mph W12.1 kmh W 10.1 mph16.3 kmh 30.39 in1029.1 mb 0.00 in0.0 mm 0.00 in0.0 mm 0.00 in0.0 mm
01:00 AM 54.9°F12.7°C 50.5°F10.3°C 85% 7.4 mph W11.9 kmh W 10.3 mph16.6 kmh 30.39 in1029.1 mb 0.00 in0.0 mm 0.00 in0.0 mm 0.00 in0.0 mm
01:05 AM 55.0°F12.8°C 50.6°F10.3°C 85% 7.6 mph W12.2 kmh W 11.4 mph18.3 kmh 30.39 in1029.1 mb 0.00 in0.0 mm 0.00 in0.0 mm 0.00 in0.0 mm
01:10 AM 55.2°F12.9°C 50.7°F10.4°C 85% 8.1 mph WSW13.0 kmh WSW 9.6 mph15.4 kmh 30.38 in1028.8 mb 0.00 in0.0 mm 0.00 in0.0 mm 0.00 in0.0 mm
01:15 AM 55.2°F12.9°C 50.8°F10.4°C 85% 7.9 mph WSW12.7 kmh WSW 10.7 mph17.2 kmh 30.38 in1028.8 mb 0.00 in0.0 mm 0.00 in0.0 mm 0.00 in0.0 mm
01:20 AM 55.2°F12.9°C 50.7°F10.4°C 85% 7.6 mph WSW12.2 kmh WSW 11.4 mph18.3 kmh 30.38 in1028.8 mb 0.00 in0.0 mm 0.00 in0.0 mm 0.00 in0.0 mm
01:25 AM 55.1°F12.8°C 50.3°F10.2°C 84% 7.9 mph WSW12.7 kmh WSW 10.3 mph16.6 kmh 30.38 in1028.8 mb 0.00 in0.0 mm 0.00 in0.0 mm 0.00 in0.0 mm
01:30 AM 54.9°F12.7°C 50.2°F10.1°C 84% 8.7 mph WSW14.0 kmh WSW 10.7 mph17.2 kmh 30.38 in1028.8 mb 0.00 in0.0 mm 0.00 in0.0 mm 0.00 in0.0 mm
01:35 AM 54.9°F12.7°C 50.3°F10.2°C 85% 8.7 mph WSW14.0 kmh WSW 13.0 mph20.9 kmh 30.38 in1028.8 mb 0.00 in0.0 mm 0.00 in0.0 mm 0.00 in0.0 mm
01:40 AM 54.8°F12.7°C 50.3°F10.2°C 85% 8.7 mph W14.0 kmh W 11.2 mph18.0 kmh 30.38 in1028.8 mb 0.00 in0.0 mm 0.00 in0.0 mm 0.00 in0.0 mm
01:45 AM 54.7°F12.6°C 50.3°F10.2°C 85% 8.4 mph W13.5 kmh W 8.7 mph14.0 kmh 30.38 in1028.8 mb 0.00 in0.0 mm 0.00 in0.0 mm 0.00 in0.0 mm
01:50 AM 54.7°F12.6°C 50.3°F10.2°C 85% 7.6 mph W12.2 kmh W 9.6 mph15.4 kmh 30.38 in1028.8 mb 0.00 in0.0 mm 0.00 in0.0 mm 0.00 in0.0 mm
01:55 AM 54.8°F12.7°C 50.4°F10.2°C 85% 7.5 mph W12.1 kmh W 9.6 mph15.4 kmh 30.38 in1028.8 mb 0.00 in0.0 mm 0.00 in0.0 mm 0.00 in0.0 mm
02:00 AM 54.8°F12.7°C 50.4°F10.2°C 85% 7.4 mph WSW11.9 kmh WSW 11.4 mph18.3 kmh 30.38 in1028.8 mb 0.00 in0.0 mm 0.00 in0.0 mm 0.00 in0.0 mm
02:05 AM 54.7°F12.6°C 50.3°F10.2°C 85% 7.7 mph WSW12.4 kmh WSW 11.9 mph19.2 kmh 30.38 in1028.8 mb 0.00 in0.0 mm 0.00 in0.0 mm 0.00 in0.0 mm
02:10 AM 54.7°F12.6°C 50.0°F10.0°C 84% 8.5 mph WSW13.7 kmh WSW 8.7 mph14.0 kmh 30.38 in1028.8 mb 0.00 in0.0 mm 0.00 in0.0 mm 0.00 in0.0 mm
02:15 AM 54.6°F12.6°C 49.9°F9.9°C 84% 8.2 mph WSW13.2 kmh WSW 10.3 mph16.6 kmh 30.38 in1028.8 mb 0.00 in0.0 mm 0.00 in0.0 mm 0.00 in0.0 mm
02:20 AM 54.5°F12.5°C 49.8°F9.9°C 84% 7.4 mph WSW11.9 kmh WSW 9.2 mph14.8 kmh 30.38 in1028.8 mb 0.00 in0.0 mm 0.00 in0.0 mm 0.00 in0.0 mm
02:25 AM 54.3°F12.4°C 49.6°F9.8°C 84% 7.4 mph WSW11.9 kmh WSW 8.1 mph13.0 kmh 30.38 in1028.8 mb 0.00 in0.0 mm 0.00 in0.0 mm 0.00 in0.0 mm
02:30 AM 54.3°F12.4°C 49.6°F9.8°C 84% 7.4 mph WSW11.9 kmh WSW 9.6 mph15.4 kmh 30.38 in1028.8 mb 0.00 in0.0 mm 0.00 in0.0 mm 0.00 in0.0 mm
02:35 AM 54.4°F12.4°C 49.7°F9.8°C 84% 7.3 mph WSW11.7 kmh WSW 8.7 mph14.0 kmh 30.38 in1028.8 mb 0.00 in0.0 mm 0.00 in0.0 mm 0.00 in0.0 mm
02:40 AM 54.4°F12.4°C 49.6°F9.8°C 84% 6.9 mph WSW11.1 kmh WSW 9.2 mph14.8 kmh 30.38 in1028.8 mb 0.00 in0.0 mm 0.00 in0.0 mm 0.00 in0.0 mm
02:45 AM 54.3°F12.4°C 49.3°F9.6°C 83% 6.7 mph WSW10.8 kmh WSW 9.6 mph15.4 kmh 30.38 in1028.8 mb 0.00 in0.0 mm 0.00 in0.0 mm 0.00 in0.0 mm
02:50 AM 54.2°F12.3°C 49.2°F9.6°C 83% 6.3 mph WSW10.1 kmh WSW 9.6 mph15.4 kmh 30.38 in1028.8 mb 0.00 in0.0 mm 0.00 in0.0 mm 0.00 in0.0 mm
02:55 AM 54.1°F12.3°C 48.8°F9.3°C 82% 6.6 mph WSW10.6 kmh WSW 10.3 mph16.6 kmh 30.37 in1028.4 mb 0.00 in0.0 mm 0.00 in0.0 mm 0.00 in0.0 mm
03:00 AM 54.0°F12.2°C 48.5°F9.2°C 82% 7.6 mph WSW12.2 kmh WSW 10.3 mph16.6 kmh 30.37 in1028.4 mb 0.00 in0.0 mm 0.00 in0.0 mm 0.00 in0.0 mm
03:05 AM 53.8°F12.1°C 48.2°F9.0°C 81% 7.6 mph WSW12.2 kmh WSW 10.7 mph17.2 kmh 30.37 in1028.4 mb 0.00 in0.0 mm 0.00 in0.0 mm 0.00 in0.0 mm
03:10 AM 53.8°F12.1°C 47.9°F8.8°C 80% 7.6 mph WSW12.2 kmh WSW 10.7 mph17.2 kmh 30.37 in1028.4 mb 0.00 in0.0 mm 0.00 in0.0 mm 0.00 in0.0 mm
03:15 AM 53.6°F12.0°C 47.6°F8.7°C 80% 7.9 mph WSW12.7 kmh WSW 10.7 mph17.2 kmh 30.37 in1028.4 mb 0.00 in0.0 mm 0.00 in0.0 mm 0.00 in0.0 mm
03:20 AM 53.6°F12.0°C 47.5°F8.6°C 80% 8.5 mph WSW13.7 kmh WSW 13.6 mph21.9 kmh 30.37 in1028.4 mb 0.00 in0.0 mm 0.00 in0.0 mm 0.00 in0.0 mm
03:25 AM 53.7°F12.1°C 47.2°F8.4°C 79% 8.5 mph WSW13.7 kmh WSW 9.2 mph14.8 kmh 30.37 in1028.4 mb 0.00 in0.0 mm 0.00 in0.0 mm 0.00 in0.0 mm
03:30 AM 53.8°F12.1°C 47.1°F8.4°C 78% 8.5 mph WSW13.7 kmh WSW 10.3 mph16.6 kmh 30.37 in1028.4 mb 0.00 in0.0 mm 0.00 in0.0 mm 0.00 in0.0 mm
03:35 AM 53.8°F12.1°C 46.9°F8.3°C 77% 8.2 mph WSW13.2 kmh WSW 10.3 mph16.6 kmh 30.37 in1028.4 mb 0.00 in0.0 mm 0.00 in0.0 mm 0.00 in0.0 mm
03:40 AM 53.6°F12.0°C 46.5°F8.1°C 77% 7.6 mph WSW12.2 kmh WSW 10.3 mph16.6 kmh 30.37 in1028.4 mb 0.00 in0.0 mm 0.00 in0.0 mm 0.00 in0.0 mm
03:45 AM 53.6°F12.0°C 46.2°F7.9°C 76% 7.7 mph WSW12.4 kmh WSW 13.4 mph21.6 kmh 30.37 in1028.4 mb 0.00 in0.0 mm 0.00 in0.0 mm 0.00 in0.0 mm
03:50 AM 53.5°F11.9°C 46.1°F7.8°C 76% 8.1 mph WSW13.0 kmh WSW 13.0 mph20.9 kmh 30.37 in1028.4 mb 0.00 in0.0 mm 0.00 in0.0 mm 0.00 in0.0 mm
03:55 AM 53.3°F11.8°C 46.0°F7.8°C 76% 8.6 mph WSW13.8 kmh WSW 11.9 mph19.2 kmh 30.36 in1028.1 mb 0.00 in0.0 mm 0.00 in0.0 mm 0.00 in0.0 mm
04:00 AM 53.2°F11.8°C 45.8°F7.7°C 76% 10.1 mph WSW16.3 kmh WSW 12.3 mph19.8 kmh 30.36 in1028.1 mb 0.00 in0.0 mm 0.00 in0.0 mm 0.00 in0.0 mm
04:05 AM 53.1°F11.7°C 45.7°F7.6°C 76% 9.9 mph WSW15.9 kmh WSW 11.2 mph18.0 kmh 30.36 in1028.1 mb 0.00 in0.0 mm 0.00 in0.0 mm 0.00 in0.0 mm
04:10 AM 53.0°F11.7°C 45.9°F7.7°C 77% 9.6 mph WSW15.4 kmh WSW 11.9 mph19.2 kmh 30.36 in1028.1 mb 0.00 in0.0 mm 0.00 in0.0 mm 0.00 in0.0 mm
04:15 AM 52.9°F11.6°C 45.9°F7.7°C 77% 9.5 mph WSW15.3 kmh WSW 11.9 mph19.2 kmh 30.36 in1028.1 mb 0.00 in0.0 mm 0.00 in0.0 mm 0.00 in0.0 mm
04:20 AM 52.9°F11.6°C 45.9°F7.7°C 77% 9.2 mph WSW14.8 kmh WSW 10.1 mph16.3 kmh 30.36 in1028.1 mb 0.00 in0.0 mm 0.00 in0.0 mm 0.00 in0.0 mm
04:25 AM 52.9°F11.6°C 45.9°F7.7°C 77% 8.8 mph WSW14.2 kmh WSW 9.6 mph15.4 kmh 30.36 in1028.1 mb 0.00 in0.0 mm 0.00 in0.0 mm 0.00 in0.0 mm
04:30 AM 52.9°F11.6°C 45.9°F7.7°C 77% 8.1 mph WSW13.0 kmh WSW 8.7 mph14.0 kmh 30.36 in1028.1 mb 0.00 in0.0 mm 0.00 in0.0 mm 0.00 in0.0 mm
04:35 AM 52.8°F11.6°C 45.8°F7.7°C 77% 7.7 mph WSW12.4 kmh WSW 10.1 mph16.3 kmh 30.36 in1028.1 mb 0.00 in0.0 mm 0.00 in0.0 mm 0.00 in0.0 mm
04:40 AM 52.6°F11.4°C 45.9°F7.7°C 78% 6.9 mph WSW11.1 kmh WSW 11.9 mph19.2 kmh 30.36 in1028.1 mb 0.00 in0.0 mm 0.00 in0.0 mm 0.00 in0.0 mm
04:45 AM 52.5°F11.4°C 45.9°F7.7°C 78% 7.4 mph WSW11.9 kmh WSW 12.5 mph20.1 kmh 30.36 in1028.1 mb 0.00 in0.0 mm 0.00 in0.0 mm 0.00 in0.0 mm
04:50 AM 52.3°F11.3°C 46.0°F7.8°C 79% 8.5 mph WSW13.7 kmh WSW 13.4 mph21.6 kmh 30.36 in1028.1 mb 0.00 in0.0 mm 0.00 in0.0 mm 0.00 in0.0 mm
04:55 AM 52.3°F11.3°C 45.8°F7.7°C 78% 8.8 mph WSW14.2 kmh WSW 13.0 mph20.9 kmh 30.36 in1028.1 mb 0.00 in0.0 mm 0.00 in0.0 mm 0.00 in0.0 mm
05:00 AM 52.2°F11.2°C 45.6°F7.6°C 78% 9.6 mph WSW15.4 kmh WSW 10.7 mph17.2 kmh 30.36 in1028.1 mb 0.00 in0.0 mm 0.00 in0.0 mm 0.00 in0.0 mm
05:05 AM 52.2°F11.2°C 45.6°F7.6°C 78% 9.0 mph WSW14.5 kmh WSW 9.6 mph15.4 kmh 30.36 in1028.1 mb 0.00 in0.0 mm 0.00 in0.0 mm 0.00 in0.0 mm
05:10 AM 52.3°F11.3°C 45.4°F7.4°C 77% 7.6 mph WSW12.2 kmh WSW 11.2 mph18.0 kmh 30.36 in1028.1 mb 0.00 in0.0 mm 0.00 in0.0 mm 0.00 in0.0 mm
05:15 AM 52.4°F11.3°C 44.9°F7.2°C 75% 7.5 mph WSW12.1 kmh WSW 11.2 mph18.0 kmh 30.36 in1028.1 mb 0.00 in0.0 mm 0.00 in0.0 mm 0.00 in0.0 mm
05:20 AM 52.5°F11.4°C 44.5°F6.9°C 74% 7.4 mph W11.9 kmh W 9.6 mph15.4 kmh 30.36 in1028.1 mb 0.00 in0.0 mm 0.00 in0.0 mm 0.00 in0.0 mm
05:25 AM 52.5°F11.4°C 44.3°F6.8°C 73% 7.3 mph W11.7 kmh W 10.7 mph17.2 kmh 30.36 in1028.1 mb 0.00 in0.0 mm 0.00 in0.0 mm 0.00 in0.0 mm
05:30 AM 52.5°F11.4°C 44.0°F6.7°C 73% 6.9 mph W11.1 kmh W 11.2 mph18.0 kmh 30.35 in1027.8 mb 0.00 in0.0 mm 0.00 in0.0 mm 0.00 in0.0 mm
05:35 AM 52.7°F11.5°C 43.9°F6.6°C 72% 7.6 mph W12.2 kmh W 12.3 mph19.8 kmh 30.35 in1027.8 mb 0.00 in0.0 mm 0.00 in0.0 mm 0.00 in0.0 mm
05:40 AM 52.9°F11.6°C 43.7°F6.5°C 71% 9.2 mph W14.8 kmh W 13.6 mph21.9 kmh 30.35 in1027.8 mb 0.00 in0.0 mm 0.00 in0.0 mm 0.00 in0.0 mm
05:45 AM 53.1°F11.7°C 43.5°F6.4°C 70% 9.4 mph W15.1 kmh W 14.5 mph23.3 kmh 30.35 in1027.8 mb 0.00 in0.0 mm 0.00 in0.0 mm 0.00 in0.0 mm
05:50 AM 53.3°F11.8°C 43.4°F6.3°C 69% 10.1 mph W16.3 kmh W 17.4 mph28.0 kmh 30.35 in1027.8 mb 0.00 in0.0 mm 0.00 in0.0 mm 0.00 in0.0 mm
05:55 AM 53.7°F12.1°C 43.3°F6.3°C 68% 10.7 mph W17.2 kmh W 15.9 mph25.6 kmh 30.35 in1027.8 mb 0.00 in0.0 mm 0.00 in0.0 mm 0.00 in0.0 mm
06:00 AM 53.9°F12.2°C 43.2°F6.2°C 67% 12.3 mph W19.8 kmh W 14.1 mph22.7 kmh 30.35 in1027.8 mb 0.00 in0.0 mm 0.00 in0.0 mm 0.00 in0.0 mm
06:05 AM 54.0°F12.2°C 43.0°F6.1°C 66% 12.0 mph WSW19.3 kmh WSW 17.4 mph28.0 kmh 30.35 in1027.8 mb 0.00 in0.0 mm 0.00 in0.0 mm 0.00 in0.0 mm
06:10 AM 54.0°F12.2°C 42.9°F6.1°C 66% 11.4 mph WSW18.3 kmh WSW 14.5 mph23.3 kmh 30.35 in1027.8 mb 0.00 in0.0 mm 0.00 in0.0 mm 0.00 in0.0 mm
06:15 AM 53.8°F12.1°C 43.0°F6.1°C 67% 11.3 mph WSW18.2 kmh WSW 12.5 mph20.1 kmh 30.35 in1027.8 mb 0.00 in0.0 mm 0.00 in0.0 mm 0.00 in0.0 mm
06:20 AM 53.3°F11.8°C 43.0°F6.1°C 68% 11.2 mph SW18.0 kmh SW 15.7 mph25.3 kmh 30.35 in1027.8 mb 0.00 in0.0 mm 0.00 in0.0 mm 0.00 in0.0 mm
06:25 AM 53.2°F11.8°C 43.0°F6.1°C 68% 11.1 mph WSW17.9 kmh WSW 14.1 mph22.7 kmh 30.35 in1027.8 mb 0.00 in0.0 mm 0.00 in0.0 mm 0.00 in0.0 mm
06:30 AM 53.3°F11.8°C 42.7°F5.9°C 67% 10.7 mph WSW17.2 kmh WSW 14.5 mph23.3 kmh 30.35 in1027.8 mb 0.00 in0.0 mm 0.00 in0.0 mm 0.00 in0.0 mm
06:35 AM 53.4°F11.9°C 42.7°F5.9°C 67% 10.6 mph WSW17.1 kmh WSW 15.9 mph25.6 kmh 30.35 in1027.8 mb 0.00 in0.0 mm 0.00 in0.0 mm 0.00 in0.0 mm
06:40 AM 53.4°F11.9°C 42.7°F5.9°C 67% 10.3 mph SW16.6 kmh SW 14.5 mph23.3 kmh 30.35 in1027.8 mb 0.00 in0.0 mm 0.00 in0.0 mm 0.00 in0.0 mm
06:45 AM 53.3°F11.8°C 42.6°F5.9°C 67% 10.6 mph WSW17.1 kmh WSW 17.9 mph28.8 kmh 30.35 in1027.8 mb 0.00 in0.0 mm 0.00 in0.0 mm 0.00 in0.0 mm
06:50 AM 53.3°F11.8°C 42.7°F5.9°C 67% 11.4 mph WSW18.3 kmh WSW 15.9 mph25.6 kmh 30.35 in1027.8 mb 0.00 in0.0 mm 0.00 in0.0 mm 0.00 in0.0 mm
06:55 AM 53.2°F11.8°C 42.6°F5.9°C 67% 11.7 mph WSW18.8 kmh WSW 17.9 mph28.8 kmh 30.35 in1027.8 mb 0.00 in0.0 mm 0.00 in0.0 mm 0.00 in0.0 mm
07:00 AM 53.2°F11.8°C 42.6°F5.9°C 67% 12.3 mph SW19.8 kmh SW 15.7 mph25.3 kmh 30.35 in1027.8 mb 0.00 in0.0 mm 0.00 in0.0 mm 0.00 in0.0 mm
07:05 AM 53.4°F11.9°C 42.3°F5.7°C 66% 12.4 mph SW20.0 kmh SW 16.3 mph26.2 kmh 30.35 in1027.8 mb 0.00 in0.0 mm 0.00 in0.0 mm 0.00 in0.0 mm
07:10 AM 53.5°F11.9°C 42.2°F5.7°C 66% 12.5 mph SW20.1 kmh SW 15.9 mph25.6 kmh 30.35 in1027.8 mb 0.00 in0.0 mm 0.00 in0.0 mm 0.00 in0.0 mm
07:15 AM 53.6°F12.0°C 42.1°F5.6°C 65% 12.1 mph SW19.5 kmh SW 14.8 mph23.8 kmh 30.35 in1027.8 mb 0.00 in0.0 mm 0.00 in0.0 mm 0.00 in0.0 mm
07:20 AM 53.7°F12.1°C 42.2°F5.7°C 65% 11.2 mph SW18.0 kmh SW 16.3 mph26.2 kmh 30.35 in1027.8 mb 0.00 in0.0 mm 0.00 in0.0 mm 0.00 in0.0 mm
07:25 AM 53.8°F12.1°C 41.9°F5.5°C 64% 11.5 mph SW18.5 kmh SW 15.7 mph25.3 kmh 30.35 in1027.8 mb 0.00 in0.0 mm 0.00 in0.0 mm 0.00 in0.0 mm
07:30 AM 54.0°F12.2°C 41.9°F5.5°C 63% 12.3 mph SW19.8 kmh SW 19.7 mph31.7 kmh 30.35 in1027.8 mb 0.00 in0.0 mm 0.00 in0.0 mm 0.00 in0.0 mm
07:35 AM 54.2°F12.3°C 41.8°F5.4°C 63% 12.4 mph SW20.0 kmh SW 18.6 mph29.9 kmh 30.35 in1027.8 mb 0.00 in0.0 mm 0.00 in0.0 mm 0.00 in0.0 mm
07:40 AM 54.6°F12.6°C 41.8°F5.4°C 62% 12.5 mph SW20.1 kmh SW 16.8 mph27.0 kmh 30.35 in1027.8 mb 0.00 in0.0 mm 0.00 in0.0 mm 0.00 in0.0 mm
07:45 AM 54.7°F12.6°C 41.7°F5.4°C 61% 12.0 mph WSW19.3 kmh WSW 22.4 mph36.0 kmh 30.35 in1027.8 mb 0.00 in0.0 mm 0.00 in0.0 mm 0.00 in0.0 mm
07:50 AM 55.0°F12.8°C 41.6°F5.3°C 60% 10.7 mph WSW17.2 kmh WSW 22.4 mph36.0 kmh 30.35 in1027.8 mb 0.00 in0.0 mm 0.00 in0.0 mm 0.00 in0.0 mm
07:55 AM 55.3°F12.9°C 41.5°F5.3°C 60% 11.8 mph WSW19.0 kmh WSW 17.9 mph28.8 kmh 30.35 in1027.8 mb 0.00 in0.0 mm 0.00 in0.0 mm 0.00 in0.0 mm
08:00 AM 55.2°F12.9°C 41.2°F5.1°C 59% 14.5 mph WSW23.3 kmh WSW 16.8 mph27.0 kmh 30.35 in1027.8 mb 0.00 in0.0 mm 0.00 in0.0 mm 0.00 in0.0 mm
08:05 AM 55.2°F12.9°C 41.5°F5.3°C 60% 13.3 mph WSW21.4 kmh WSW 14.5 mph23.3 kmh 30.35 in1027.8 mb 0.00 in0.0 mm 0.00 in0.0 mm 0.00 in0.0 mm
08:10 AM 54.9°F12.7°C 41.4°F5.2°C 60% 10.3 mph SW16.6 kmh SW 12.3 mph19.8 kmh 30.35 in1027.8 mb 0.00 in0.0 mm 0.00 in0.0 mm 0.00 in0.0 mm
08:15 AM 54.7°F12.6°C 41.5°F5.3°C 61% 9.5 mph SW15.3 kmh SW 11.2 mph18.0 kmh 30.35 in1027.8 mb 0.00 in0.0 mm 0.00 in0.0 mm 0.00 in0.0 mm
08:20 AM 54.7°F12.6°C 41.5°F5.3°C 61% 7.4 mph SW11.9 kmh SW 15.9 mph25.6 kmh 30.35 in1027.8 mb 0.00 in0.0 mm 0.00 in0.0 mm 0.00 in0.0 mm
08:25 AM 54.9°F12.7°C 41.3°F5.2°C 60% 7.1 mph SW11.4 kmh SW 12.3 mph19.8 kmh 30.35 in1027.8 mb 0.00 in0.0 mm 0.00 in0.0 mm 0.00 in0.0 mm
08:30 AM 55.1°F12.8°C 41.5°F5.3°C 60% 6.3 mph SW10.1 kmh SW 17.4 mph28.0 kmh 30.35 in1027.8 mb 0.00 in0.0 mm 0.00 in0.0 mm 0.00 in0.0 mm
08:35 AM 55.6°F13.1°C 41.6°F5.3°C 59% 7.7 mph SW12.4 kmh SW 20.8 mph33.5 kmh 30.35 in1027.8 mb 0.00 in0.0 mm 0.00 in0.0 mm 0.00 in0.0 mm
08:40 AM 56.0°F13.3°C 41.7°F5.4°C 58% 11.4 mph SW18.3 kmh SW 15.9 mph25.6 kmh 30.35 in1027.8 mb 0.00 in0.0 mm 0.00 in0.0 mm 0.00 in0.0 mm
08:45 AM 56.6°F13.7°C 41.7°F5.4°C 57% 11.4 mph SW18.3 kmh SW 14.5 mph23.3 kmh 30.35 in1027.8 mb 0.00 in0.0 mm 0.00 in0.0 mm 0.00 in0.0 mm
08:50 AM 56.9°F13.8°C 41.7°F5.4°C 57% 11.4 mph SW18.3 kmh SW 17.9 mph28.8 kmh 30.35 in1027.8 mb 0.00 in0.0 mm 0.00 in0.0 mm 0.00 in0.0 mm
08:55 AM 57.2°F14.0°C 41.6°F5.3°C 56% 11.3 mph SW18.2 kmh SW 15.9 mph25.6 kmh 30.35 in1027.8 mb 0.00 in0.0 mm 0.00 in0.0 mm 0.00 in0.0 mm
09:00 AM 57.4°F14.1°C 41.9°F5.5°C 56% 11.2 mph SW18.0 kmh SW 13.4 mph21.6 kmh 30.35 in1027.8 mb 0.00 in0.0 mm 0.00 in0.0 mm 0.00 in0.0 mm
09:05 AM 57.6°F14.2°C 42.0°F5.6°C 56% 10.6 mph SW17.1 kmh SW 11.9 mph19.2 kmh 30.35 in1027.8 mb 0.00 in0.0 mm 0.00 in0.0 mm 0.00 in0.0 mm
09:10 AM 57.7°F14.3°C 42.1°F5.6°C 56% 9.2 mph WSW14.8 kmh WSW 10.7 mph17.2 kmh 30.35 in1027.8 mb 0.00 in0.0 mm 0.00 in0.0 mm 0.00 in0.0 mm
09:15 AM 57.8°F14.3°C 42.2°F5.7°C 56% 8.4 mph WSW13.5 kmh WSW 10.3 mph16.6 kmh 30.35 in1027.8 mb 0.00 in0.0 mm 0.00 in0.0 mm 0.00 in0.0 mm
09:20 AM 57.9°F14.4°C 42.0°F5.6°C 55% 6.5 mph SW10.5 kmh SW 14.1 mph22.7 kmh 30.35 in1027.8 mb 0.00 in0.0 mm 0.00 in0.0 mm 0.00 in0.0 mm
09:25 AM 58.0°F14.4°C 42.0°F5.6°C 55% 6.6 mph SW10.6 kmh SW 14.5 mph23.3 kmh 30.35 in1027.8 mb 0.00 in0.0 mm 0.00 in0.0 mm 0.00 in0.0 mm
09:30 AM 58.3°F14.6°C 42.0°F5.6°C 54% 6.9 mph WSW11.1 kmh WSW 17.4 mph28.0 kmh 30.35 in1027.8 mb 0.00 in0.0 mm 0.00 in0.0 mm 0.00 in0.0 mm
09:35 AM 58.6°F14.8°C 42.0°F5.6°C 54% 7.8 mph WSW12.6 kmh WSW 14.1 mph22.7 kmh 30.35 in1027.8 mb 0.00 in0.0 mm 0.00 in0.0 mm 0.00 in0.0 mm
09:40 AM 58.8°F14.9°C 41.9°F5.5°C 53% 10.1 mph WSW16.3 kmh WSW 17.9 mph28.8 kmh 30.35 in1027.8 mb 0.00 in0.0 mm 0.00 in0.0 mm 0.00 in0.0 mm
09:45 AM 59.4°F15.2°C 42.1°F5.6°C 53% 10.5 mph WSW16.9 kmh WSW 17.4 mph28.0 kmh 30.35 in1027.8 mb 0.00 in0.0 mm 0.00 in0.0 mm 0.00 in0.0 mm
09:50 AM 59.9°F15.5°C 42.2°F5.7°C 52% 11.4 mph WSW18.3 kmh WSW 15.7 mph25.3 kmh 30.35 in1027.8 mb 0.00 in0.0 mm 0.00 in0.0 mm 0.00 in0.0 mm
09:55 AM 60.4°F15.8°C 42.3°F5.7°C 51% 11.2 mph WSW18.0 kmh WSW 19.0 mph30.6 kmh 30.35 in1027.8 mb 0.00 in0.0 mm 0.00 in0.0 mm 0.00 in0.0 mm
10:00 AM 60.9°F16.1°C 42.6°F5.9°C 51% 10.7 mph WSW17.2 kmh WSW 17.0 mph27.4 kmh 30.34 in1027.4 mb 0.00 in0.0 mm 0.00 in0.0 mm 0.00 in0.0 mm
10:05 AM 61.5°F16.4°C 42.7°F5.9°C 50% 10.3 mph WSW16.6 kmh WSW 15.9 mph25.6 kmh 30.34 in1027.4 mb 0.00 in0.0 mm 0.00 in0.0 mm 0.00 in0.0 mm
10:10 AM 62.1°F16.7°C 42.7°F5.9°C 49% 9.2 mph WSW14.8 kmh WSW 17.4 mph28.0 kmh 30.34 in1027.4 mb 0.00 in0.0 mm 0.00 in0.0 mm 0.00 in0.0 mm
10:15 AM 62.7°F17.1°C 42.7°F5.9°C 48% 9.0 mph WSW14.5 kmh WSW 16.8 mph27.0 kmh 30.34 in1027.4 mb 0.00 in0.0 mm 0.00 in0.0 mm 0.00 in0.0 mm
10:20 AM 63.3°F17.4°C 42.7°F5.9°C 47% 8.5 mph WSW13.7 kmh WSW 20.4 mph32.8 kmh 30.34 in1027.4 mb 0.00 in0.0 mm 0.00 in0.0 mm 0.00 in0.0 mm
10:25 AM 63.8°F17.7°C 42.8°F6.0°C 46% 9.0 mph WSW14.5 kmh WSW 20.1 mph32.3 kmh 30.34 in1027.4 mb 0.00 in0.0 mm 0.00 in0.0 mm 0.00 in0.0 mm
10:30 AM 64.1°F17.8°C 42.7°F5.9°C 46% 10.1 mph WSW16.3 kmh WSW 19.7 mph31.7 kmh 30.34 in1027.4 mb 0.00 in0.0 mm 0.00 in0.0 mm 0.00 in0.0 mm
10:35 AM 64.5°F18.1°C 42.7°F5.9°C 45% 10.8 mph WSW17.4 kmh WSW 19.7 mph31.7 kmh 30.34 in1027.4 mb 0.00 in0.0 mm 0.00 in0.0 mm 0.00 in0.0 mm
10:40 AM 64.7°F18.2°C 42.8°F6.0°C 45% 12.5 mph WSW20.1 kmh WSW 19.0 mph30.6 kmh 30.35 in1027.8 mb 0.00 in0.0 mm 0.00 in0.0 mm 0.00 in0.0 mm
10:45 AM 64.9°F18.3°C 43.1°F6.2°C 45% 11.6 mph WSW18.7 kmh WSW 15.9 mph25.6 kmh 30.35 in1027.8 mb 0.00 in0.0 mm 0.00 in0.0 mm 0.00 in0.0 mm
10:50 AM 65.4°F18.6°C 43.2°F6.2°C 44% 9.2 mph WSW14.8 kmh WSW 20.1 mph32.3 kmh 30.35 in1027.8 mb 0.00 in0.0 mm 0.00 in0.0 mm 0.00 in0.0 mm
10:55 AM 65.9°F18.8°C 43.1°F6.2°C 44% 10.3 mph WSW16.6 kmh WSW 24.6 mph39.6 kmh 30.35 in1027.8 mb 0.00 in0.0 mm 0.00 in0.0 mm 0.00 in0.0 mm
11:00 AM 66.0°F18.9°C 42.9°F6.1°C 43% 13.0 mph W20.9 kmh W 22.6 mph36.4 kmh 30.35 in1027.8 mb 0.00 in0.0 mm 0.00 in0.0 mm 0.00 in0.0 mm
11:05 AM 66.2°F19.0°C 43.0°F6.1°C 43% 14.3 mph WSW23.0 kmh WSW 21.5 mph34.6 kmh 30.35 in1027.8 mb 0.00 in0.0 mm 0.00 in0.0 mm 0.00 in0.0 mm
11:10 AM 66.5°F19.2°C 43.3°F6.3°C 43% 17.4 mph WSW28.0 kmh WSW 19.7 mph31.7 kmh 30.35 in1027.8 mb 0.00 in0.0 mm 0.00 in0.0 mm 0.00 in0.0 mm
11:15 AM 66.8°F19.3°C 43.4°F6.3°C 43% 16.7 mph WSW26.9 kmh WSW 22.6 mph36.4 kmh 30.35 in1027.8 mb 0.00 in0.0 mm 0.00 in0.0 mm 0.00 in0.0 mm
11:20 AM 67.1°F19.5°C 43.2°F6.2°C 42% 14.8 mph WSW23.8 kmh WSW 20.8 mph33.5 kmh 30.35 in1027.8 mb 0.00 in0.0 mm 0.00 in0.0 mm 0.00 in0.0 mm
11:25 AM 67.4°F19.7°C 43.5°F6.4°C 42% 14.6 mph WSW23.5 kmh WSW 19.0 mph30.6 kmh 30.34 in1027.4 mb 0.00 in0.0 mm 0.00 in0.0 mm 0.00 in0.0 mm
11:30 AM 67.6°F19.8°C 43.7°F6.5°C 42% 14.1 mph WSW22.7 kmh WSW 15.9 mph25.6 kmh 30.34 in1027.4 mb 0.00 in0.0 mm 0.00 in0.0 mm 0.00 in0.0 mm
11:35 AM 67.8°F19.9°C 43.9°F6.6°C 42% 13.6 mph WSW21.9 kmh WSW 16.8 mph27.0 kmh 30.34 in1027.4 mb 0.00 in0.0 mm 0.00 in0.0 mm 0.00 in0.0 mm
11:40 AM 68.2°F20.1°C 44.1°F6.7°C 42% 12.3 mph WSW19.8 kmh WSW 17.4 mph28.0 kmh 30.34 in1027.4 mb 0.00 in0.0 mm 0.00 in0.0 mm 0.00 in0.0 mm
11:45 AM 68.5°F20.3°C 43.8°F6.6°C 41% 12.3 mph WSW19.8 kmh WSW 19.2 mph30.9 kmh 30.34 in1027.4 mb 0.00 in0.0 mm 0.00 in0.0 mm 0.00 in0.0 mm
11:50 AM 68.6°F20.3°C 44.0°F6.7°C 41% 12.3 mph WSW19.8 kmh WSW 20.1 mph32.3 kmh 30.34 in1027.4 mb 0.00 in0.0 mm 0.00 in0.0 mm 0.00 in0.0 mm
11:55 AM 68.6°F20.3°C 45.2°F7.3°C 43% 13.0 mph WSW20.9 kmh WSW 23.0 mph37.0 kmh 30.33 in1027.1 mb 0.00 in0.0 mm 0.00 in0.0 mm 0.00 in0.0 mm
12:00 PM 68.6°F20.3°C 45.0°F7.2°C 43% 14.8 mph WSW23.8 kmh WSW 21.3 mph34.3 kmh 30.33 in1027.1 mb 0.00 in0.0 mm 0.00 in0.0 mm 0.00 in0.0 mm
12:05 PM 68.9°F20.5°C 45.1°F7.3°C 42% 15.2 mph WSW24.5 kmh WSW 22.6 mph36.4 kmh 30.33 in1027.1 mb 0.00 in0.0 mm 0.00 in0.0 mm 0.00 in0.0 mm
12:10 PM 69.2°F20.7°C 44.9°F7.2°C 42% 16.3 mph WSW26.2 kmh WSW 21.3 mph34.3 kmh 30.33 in1027.1 mb 0.00 in0.0 mm 0.00 in0.0 mm 0.00 in0.0 mm
12:15 PM 69.5°F20.8°C 45.1°F7.3°C 42% 16.0 mph WSW25.7 kmh WSW 18.1 mph29.1 kmh 30.32 in1026.8 mb 0.00 in0.0 mm 0.00 in0.0 mm 0.00 in0.0 mm
12:20 PM 69.8°F21.0°C 44.8°F7.1°C 41% 15.2 mph WSW24.5 kmh WSW 19.2 mph30.9 kmh 30.32 in1026.8 mb 0.00 in0.0 mm 0.00 in0.0 mm 0.00 in0.0 mm
12:25 PM 70.3°F21.3°C 44.4°F6.9°C 39% 14.7 mph WSW23.7 kmh WSW 18.1 mph29.1 kmh 30.32 in1026.8 mb 0.00 in0.0 mm 0.00 in0.0 mm 0.00 in0.0 mm
12:30 PM 70.5°F21.4°C 45.1°F7.3°C 40% 13.4 mph WSW21.6 kmh WSW 13.4 mph21.6 kmh 30.32 in1026.8 mb 0.00 in0.0 mm 0.00 in0.0 mm 0.00 in0.0 mm
12:35 PM 70.9°F21.6°C 45.3°F7.4°C 40% 12.2 mph WSW19.6 kmh WSW 13.4 mph21.6 kmh 30.32 in1026.8 mb 0.00 in0.0 mm 0.00 in0.0 mm 0.00 in0.0 mm
12:40 PM 71.0°F21.7°C 45.5°F7.5°C 40% 9.2 mph WSW14.8 kmh WSW 11.9 mph19.2 kmh 30.32 in1026.8 mb 0.00 in0.0 mm 0.00 in0.0 mm 0.00 in0.0 mm
12:45 PM 71.3°F21.8°C 45.9°F7.7°C 40% 8.4 mph WSW13.5 kmh WSW 9.6 mph15.4 kmh 30.32 in1026.8 mb 0.00 in0.0 mm 0.00 in0.0 mm 0.00 in0.0 mm
12:50 PM 71.5°F21.9°C 46.4°F8.0°C 41% 6.5 mph WSW10.5 kmh WSW 10.3 mph16.6 kmh 30.32 in1026.8 mb 0.00 in0.0 mm 0.00 in0.0 mm 0.00 in0.0 mm
12:55 PM 71.7°F22.1°C 45.8°F7.7°C 40% 6.5 mph SW10.5 kmh SW 10.1 mph16.3 kmh 30.31 in1026.4 mb 0.00 in0.0 mm 0.00 in0.0 mm 0.00 in0.0 mm
01:00 PM 71.8°F22.1°C 45.1°F7.3°C 38% 6.5 mph SW10.5 kmh SW 11.2 mph18.0 kmh 30.31 in1026.4 mb 0.00 in0.0 mm 0.00 in0.0 mm 0.00 in0.0 mm
01:05 PM 72.1°F22.3°C 45.4°F7.4°C 39% 6.3 mph SW10.1 kmh SW 13.4 mph21.6 kmh 30.31 in1026.4 mb 0.00 in0.0 mm 0.00 in0.0 mm 0.00 in0.0 mm
01:10 PM 72.4°F22.4°C 46.5°F8.1°C 40% 5.8 mph SSW9.3 kmh SSW 13.0 mph20.9 kmh 30.31 in1026.4 mb 0.00 in0.0 mm 0.00 in0.0 mm 0.00 in0.0 mm
01:15 PM 72.6°F22.6°C 45.9°F7.7°C 39% 6.6 mph SW10.6 kmh SW 14.5 mph23.3 kmh 30.30 in1026.1 mb 0.00 in0.0 mm 0.00 in0.0 mm 0.00 in0.0 mm
01:20 PM 72.6°F22.6°C 45.8°F7.7°C 38% 8.5 mph SW13.7 kmh SW 14.5 mph23.3 kmh 30.30 in1026.1 mb 0.00 in0.0 mm 0.00 in0.0 mm 0.00 in0.0 mm
01:25 PM 72.3°F22.4°C 45.8°F7.7°C 39% 8.8 mph SW14.2 kmh SW 17.9 mph28.8 kmh 30.30 in1026.1 mb 0.00 in0.0 mm 0.00 in0.0 mm 0.00 in0.0 mm
01:30 PM 72.3°F22.4°C 46.3°F7.9°C 39% 9.6 mph SSW15.4 kmh SSW 15.2 mph24.5 kmh 30.29 in1025.7 mb 0.00 in0.0 mm 0.00 in0.0 mm 0.00 in0.0 mm
01:35 PM 72.4°F22.4°C 46.8°F8.2°C 40% 9.5 mph SSW15.3 kmh SSW 13.6 mph21.9 kmh 30.29 in1025.7 mb 0.00 in0.0 mm 0.00 in0.0 mm 0.00 in0.0 mm
01:40 PM 72.7°F22.6°C 47.4°F8.6°C 41% 9.2 mph SSW14.8 kmh SSW 11.2 mph18.0 kmh 30.29 in1025.7 mb 0.00 in0.0 mm 0.00 in0.0 mm 0.00 in0.0 mm
01:45 PM 72.9°F22.7°C 47.4°F8.6°C 40% 8.7 mph SSW14.0 kmh SSW 13.0 mph20.9 kmh 30.29 in1025.7 mb 0.00 in0.0 mm 0.00 in0.0 mm 0.00 in0.0 mm
01:50 PM 72.7°F22.6°C 47.7°F8.7°C 41% 7.6 mph SW12.2 kmh SW 15.2 mph24.5 kmh 30.29 in1025.7 mb 0.00 in0.0 mm 0.00 in0.0 mm 0.00 in0.0 mm
01:55 PM 72.8°F22.7°C 47.7°F8.7°C 41% 7.9 mph SW12.7 kmh SW 20.4 mph32.8 kmh 30.28 in1025.4 mb 0.00 in0.0 mm 0.00 in0.0 mm 0.00 in0.0 mm
02:00 PM 73.4°F23.0°C 46.8°F8.2°C 39% 8.7 mph SSW14.0 kmh SSW 21.5 mph34.6 kmh 30.28 in1025.4 mb 0.00 in0.0 mm 0.00 in0.0 mm 0.00 in0.0 mm
02:05 PM 74.3°F23.5°C 47.2°F8.4°C 38% 9.5 mph SW15.3 kmh SW 19.0 mph30.6 kmh 30.28 in1025.4 mb 0.00 in0.0 mm 0.00 in0.0 mm 0.00 in0.0 mm
02:10 PM 74.9°F23.8°C 46.8°F8.2°C 37% 11.4 mph SW18.3 kmh SW 16.8 mph27.0 kmh 30.28 in1025.4 mb 0.00 in0.0 mm 0.00 in0.0 mm 0.00 in0.0 mm
02:15 PM 75.4°F24.1°C 46.6°F8.1°C 36% 10.9 mph SW17.5 kmh SW 17.0 mph27.4 kmh 30.27 in1025.1 mb 0.00 in0.0 mm 0.00 in0.0 mm 0.00 in0.0 mm
02:20 PM 75.7°F24.3°C 46.2°F7.9°C 35% 9.6 mph SW15.4 kmh SW 17.9 mph28.8 kmh 30.27 in1025.1 mb 0.00 in0.0 mm 0.00 in0.0 mm 0.00 in0.0 mm
02:25 PM 75.9°F24.4°C 46.3°F7.9°C 35% 9.8 mph SW15.8 kmh SW 15.7 mph25.3 kmh 30.27 in1025.1 mb 0.00 in0.0 mm 0.00 in0.0 mm 0.00 in0.0 mm
02:30 PM 76.0°F24.4°C 46.4°F8.0°C 35% 10.3 mph WSW16.6 kmh WSW 14.5 mph23.3 kmh 30.27 in1025.1 mb 0.00 in0.0 mm 0.00 in0.0 mm 0.00 in0.0 mm
02:35 PM 76.3°F24.6°C 47.4°F8.6°C 36% 9.8 mph WSW15.8 kmh WSW 11.9 mph19.2 kmh 30.27 in1025.1 mb 0.00 in0.0 mm 0.00 in0.0 mm 0.00 in0.0 mm
02:40 PM 76.4°F24.7°C 48.1°F8.9°C 37% 8.7 mph WSW14.0 kmh WSW 13.4 mph21.6 kmh 30.27 in1025.1 mb 0.00 in0.0 mm 0.00 in0.0 mm 0.00 in0.0 mm
02:45 PM 76.3°F24.6°C 48.1°F8.9°C 37% 9.0 mph SW14.5 kmh SW 13.0 mph20.9 kmh 30.27 in1025.1 mb 0.00 in0.0 mm 0.00 in0.0 mm 0.00 in0.0 mm
02:50 PM 76.2°F24.6°C 48.1°F8.9°C 37% 9.6 mph SW15.4 kmh SW 10.3 mph16.6 kmh 30.27 in1025.1 mb 0.00 in0.0 mm 0.00 in0.0 mm 0.00 in0.0 mm
02:55 PM 76.2°F24.6°C 48.3°F9.1°C 37% 9.3 mph SW15.0 kmh SW 14.1 mph22.7 kmh 30.26 in1024.7 mb 0.00 in0.0 mm 0.00 in0.0 mm 0.00 in0.0 mm
03:00 PM 76.3°F24.6°C 48.7°F9.3°C 38% 8.5 mph SW13.7 kmh SW 13.6 mph21.9 kmh 30.26 in1024.7 mb 0.00 in0.0 mm 0.00 in0.0 mm 0.00 in0.0 mm
03:05 PM 76.2°F24.6°C 48.0°F8.9°C 37% 8.8 mph SW14.2 kmh SW 13.6 mph21.9 kmh 30.26 in1024.7 mb 0.00 in0.0 mm 0.00 in0.0 mm 0.00 in0.0 mm
03:10 PM 76.2°F24.6°C 48.0°F8.9°C 37% 9.6 mph SW15.4 kmh SW 13.4 mph21.6 kmh 30.26 in1024.7 mb 0.00 in0.0 mm 0.00 in0.0 mm 0.00 in0.0 mm
03:15 PM 76.2°F24.6°C 47.7°F8.7°C 37% 9.8 mph SW15.8 kmh SW 13.6 mph21.9 kmh 30.26 in1024.7 mb 0.00 in0.0 mm 0.00 in0.0 mm 0.00 in0.0 mm
03:20 PM 75.8°F24.3°C 47.7°F8.7°C 37% 10.3 mph SW16.6 kmh SW 11.9 mph19.2 kmh 30.26 in1024.7 mb 0.00 in0.0 mm 0.00 in0.0 mm 0.00 in0.0 mm
03:25 PM 76.0°F24.4°C 48.2°F9.0°C 38% 9.3 mph SSW15.0 kmh SSW 10.3 mph16.6 kmh 30.26 in1024.7 mb 0.00 in0.0 mm 0.00 in0.0 mm 0.00 in0.0 mm
03:30 PM 76.1°F24.5°C 47.9°F8.8°C 37% 6.9 mph SSW11.1 kmh SSW 7.4 mph11.9 kmh 30.26 in1024.7 mb 0.00 in0.0 mm 0.00 in0.0 mm 0.00 in0.0 mm
03:35 PM 75.6°F24.2°C 47.8°F8.8°C 37% 6.0 mph S9.7 kmh S 6.9 mph11.1 kmh 30.26 in1024.7 mb 0.00 in0.0 mm 0.00 in0.0 mm 0.00 in0.0 mm
03:40 PM 75.2°F24.0°C 47.9°F8.8°C 38% 3.6 mph NE5.8 kmh NE 6.3 mph10.1 kmh 30.27 in1025.1 mb 0.00 in0.0 mm 0.00 in0.0 mm 0.00 in0.0 mm
03:45 PM 75.5°F24.2°C 48.1°F8.9°C 38% 3.7 mph E6.0 kmh E 8.5 mph13.7 kmh 30.27 in1025.1 mb 0.00 in0.0 mm 0.00 in0.0 mm 0.00 in0.0 mm
03:50 PM 75.9°F24.4°C 48.4°F9.1°C 38% 4.0 mph SE6.4 kmh SE 7.4 mph11.9 kmh 30.27 in1025.1 mb 0.00 in0.0 mm 0.00 in0.0 mm 0.00 in0.0 mm
03:55 PM 76.0°F24.4°C 48.6°F9.2°C 38% 4.2 mph SSE6.8 kmh SSE 8.5 mph13.7 kmh 30.27 in1025.1 mb 0.00 in0.0 mm 0.00 in0.0 mm 0.00 in0.0 mm
04:00 PM 76.4°F24.7°C 48.9°F9.4°C 38% 4.7 mph SSW7.6 kmh SSW 6.9 mph11.1 kmh 30.27 in1025.1 mb 0.00 in0.0 mm 0.00 in0.0 mm 0.00 in0.0 mm
04:05 PM 76.6°F24.8°C 49.2°F9.6°C 38% 4.5 mph S7.2 kmh S 4.7 mph7.6 kmh 30.27 in1025.1 mb 0.00 in0.0 mm 0.00 in0.0 mm 0.00 in0.0 mm
04:10 PM 76.1°F24.5°C 49.6°F9.8°C 39% 4.0 mph S6.4 kmh S 6.5 mph10.5 kmh 30.27 in1025.1 mb 0.00 in0.0 mm 0.00 in0.0 mm 0.00 in0.0 mm
04:15 PM 74.6°F23.7°C 49.6°F9.8°C 41% 4.3 mph SSE6.9 kmh SSE 10.1 mph16.3 kmh 30.27 in1025.1 mb 0.00 in0.0 mm 0.00 in0.0 mm 0.00 in0.0 mm
04:20 PM 72.9°F22.7°C 49.4°F9.7°C 43% 5.1 mph ENE8.2 kmh ENE 10.7 mph17.2 kmh 30.27 in1025.1 mb 0.00 in0.0 mm 0.00 in0.0 mm 0.00 in0.0 mm
04:25 PM 71.8°F22.1°C 48.9°F9.4°C 44% 5.8 mph ENE9.3 kmh ENE 10.3 mph16.6 kmh 30.28 in1025.4 mb 0.00 in0.0 mm 0.00 in0.0 mm 0.00 in0.0 mm
04:30 PM 71.0°F21.7°C 48.7°F9.3°C 45% 7.4 mph NE11.9 kmh NE 11.2 mph18.0 kmh 30.28 in1025.4 mb 0.00 in0.0 mm 0.00 in0.0 mm 0.00 in0.0 mm
04:35 PM 70.6°F21.4°C 48.2°F9.0°C 45% 7.1 mph NE11.4 kmh NE 10.1 mph16.3 kmh 30.28 in1025.4 mb 0.00 in0.0 mm 0.00 in0.0 mm 0.00 in0.0 mm
04:40 PM 70.5°F21.4°C 48.6°F9.2°C 46% 6.5 mph NE10.5 kmh NE 8.1 mph13.0 kmh 30.28 in1025.4 mb 0.00 in0.0 mm 0.00 in0.0 mm 0.00 in0.0 mm
04:45 PM 70.4°F21.3°C 48.1°F8.9°C 45% 6.3 mph NE10.1 kmh NE 10.3 mph16.6 kmh 30.28 in1025.4 mb 0.00 in0.0 mm 0.00 in0.0 mm 0.00 in0.0 mm
04:50 PM 70.1°F21.2°C 47.9°F8.8°C 45% 5.8 mph NE9.3 kmh NE 10.3 mph16.6 kmh 30.28 in1025.4 mb 0.00 in0.0 mm 0.00 in0.0 mm 0.00 in0.0 mm
04:55 PM 69.6°F20.9°C 47.8°F8.8°C 46% 6.1 mph NE9.8 kmh NE 11.9 mph19.2 kmh 30.28 in1025.4 mb 0.00 in0.0 mm 0.00 in0.0 mm 0.00 in0.0 mm
05:00 PM 69.3°F20.7°C 47.6°F8.7°C 46% 6.9 mph NE11.1 kmh NE 9.2 mph14.8 kmh 30.28 in1025.4 mb 0.00 in0.0 mm 0.00 in0.0 mm 0.00 in0.0 mm
05:05 PM 69.1°F20.6°C 47.9°F8.8°C 47% 6.5 mph NE10.5 kmh NE 9.2 mph14.8 kmh 30.28 in1025.4 mb 0.00 in0.0 mm 0.00 in0.0 mm 0.00 in0.0 mm
05:10 PM 68.8°F20.4°C 47.7°F8.7°C 47% 5.4 mph NNE8.7 kmh NNE 8.5 mph13.7 kmh 30.28 in1025.4 mb 0.00 in0.0 mm 0.00 in0.0 mm 0.00 in0.0 mm
05:15 PM 68.6°F20.3°C 47.5°F8.6°C 47% 5.5 mph NNE8.9 kmh NNE 7.6 mph12.2 kmh 30.28 in1025.4 mb 0.00 in0.0 mm 0.00 in0.0 mm 0.00 in0.0 mm
05:20 PM 68.3°F20.2°C 47.8°F8.8°C 48% 5.8 mph NNE9.3 kmh NNE 8.5 mph13.7 kmh 30.28 in1025.4 mb 0.00 in0.0 mm 0.00 in0.0 mm 0.00 in0.0 mm
05:25 PM 68.1°F20.1°C 47.8°F8.8°C 48% 5.4 mph NNE8.7 kmh NNE 7.6 mph12.2 kmh 30.28 in1025.4 mb 0.00 in0.0 mm 0.00 in0.0 mm 0.00 in0.0 mm
05:30 PM 67.8°F19.9°C 47.9°F8.8°C 49% 4.3 mph N6.9 kmh N 7.4 mph11.9 kmh 30.28 in1025.4 mb 0.00 in0.0 mm 0.00 in0.0 mm 0.00 in0.0 mm
05:35 PM 67.6°F19.8°C 47.7°F8.7°C 49% 4.2 mph N6.8 kmh N 7.6 mph12.2 kmh 30.28 in1025.4 mb 0.00 in0.0 mm 0.00 in0.0 mm 0.00 in0.0 mm
05:40 PM 67.4°F19.7°C 47.5°F8.6°C 49% 4.0 mph N6.4 kmh N 8.7 mph14.0 kmh 30.28 in1025.4 mb 0.00 in0.0 mm 0.00 in0.0 mm 0.00 in0.0 mm
05:45 PM 67.0°F19.4°C 47.2°F8.4°C 49% 4.4 mph N7.1 kmh N 8.7 mph14.0 kmh 30.28 in1025.4 mb 0.00 in0.0 mm 0.00 in0.0 mm 0.00 in0.0 mm
05:50 PM 66.7°F19.3°C 46.8°F8.2°C 49% 5.4 mph N8.7 kmh N 8.7 mph14.0 kmh 30.28 in1025.4 mb 0.00 in0.0 mm 0.00 in0.0 mm 0.00 in0.0 mm
05:55 PM 66.4°F19.1°C 46.2°F7.9°C 48% 5.5 mph N8.9 kmh N 10.3 mph16.6 kmh 30.28 in1025.4 mb 0.00 in0.0 mm 0.00 in0.0 mm 0.00 in0.0 mm
06:00 PM 66.2°F19.0°C 46.0°F7.8°C 48% 5.8 mph N9.3 kmh N 10.7 mph17.2 kmh 30.28 in1025.4 mb 0.00 in0.0 mm 0.00 in0.0 mm 0.00 in0.0 mm
06:05 PM 66.2°F19.0°C 46.1°F7.8°C 48% 6.3 mph N10.1 kmh N 10.1 mph16.3 kmh 30.28 in1025.4 mb 0.00 in0.0 mm 0.00 in0.0 mm 0.00 in0.0 mm
06:10 PM 66.1°F18.9°C 46.3°F7.9°C 49% 7.4 mph N11.9 kmh N 9.6 mph15.4 kmh 30.29 in1025.7 mb 0.00 in0.0 mm 0.00 in0.0 mm 0.00 in0.0 mm
06:15 PM 66.0°F18.9°C 46.3°F7.9°C 49% 7.1 mph N11.4 kmh N 8.1 mph13.0 kmh 30.29 in1025.7 mb 0.00 in0.0 mm 0.00 in0.0 mm 0.00 in0.0 mm
06:20 PM 65.9°F18.8°C 46.2°F7.9°C 49% 6.3 mph N10.1 kmh N 10.7 mph17.2 kmh 30.29 in1025.7 mb 0.00 in0.0 mm 0.00 in0.0 mm 0.00 in0.0 mm
06:25 PM 65.8°F18.8°C 46.1°F7.8°C 49% 6.3 mph N10.1 kmh N 10.3 mph16.6 kmh 30.29 in1025.7 mb 0.00 in0.0 mm 0.00 in0.0 mm 0.00 in0.0 mm
06:30 PM 65.8°F18.8°C 45.6°F7.6°C 48% 6.5 mph N10.5 kmh N 9.6 mph15.4 kmh 30.29 in1025.7 mb 0.00 in0.0 mm 0.00 in0.0 mm 0.00 in0.0 mm
06:35 PM 65.8°F18.8°C 45.1°F7.3°C 47% 6.4 mph N10.3 kmh N 8.1 mph13.0 kmh 30.29 in1025.7 mb 0.00 in0.0 mm 0.00 in0.0 mm 0.00 in0.0 mm
06:40 PM 66.0°F18.9°C 44.7°F7.1°C 46% 6.3 mph N10.1 kmh N 8.5 mph13.7 kmh 30.30 in1026.1 mb 0.00 in0.0 mm 0.00 in0.0 mm 0.00 in0.0 mm
06:45 PM 66.0°F18.9°C 44.6°F7.0°C 46% 6.1 mph N9.8 kmh N 8.7 mph14.0 kmh 30.30 in1026.1 mb 0.00 in0.0 mm 0.00 in0.0 mm 0.00 in0.0 mm
06:50 PM 66.0°F18.9°C 44.6°F7.0°C 46% 5.8 mph N9.3 kmh N 7.6 mph12.2 kmh 30.30 in1026.1 mb 0.00 in0.0 mm 0.00 in0.0 mm 0.00 in0.0 mm
06:55 PM 66.0°F18.9°C 44.6°F7.0°C 46% 5.6 mph N9.0 kmh N 7.4 mph11.9 kmh 30.30 in1026.1 mb 0.00 in0.0 mm 0.00 in0.0 mm 0.00 in0.0 mm
07:00 PM 66.0°F18.9°C 44.6°F7.0°C 46% 5.1 mph N8.2 kmh N 5.4 mph8.7 kmh 30.30 in1026.1 mb 0.00 in0.0 mm 0.00 in0.0 mm 0.00 in0.0 mm
07:05 PM 66.0°F18.9°C 44.5°F6.9°C 46% 4.6 mph N7.4 kmh N 5.1 mph8.2 kmh 30.30 in1026.1 mb 0.00 in0.0 mm 0.00 in0.0 mm 0.00 in0.0 mm
07:10 PM 66.0°F18.9°C 44.4°F6.9°C 46% 3.1 mph NNW5.0 kmh NNW 4.3 mph6.9 kmh 30.30 in1026.1 mb 0.00 in0.0 mm 0.00 in0.0 mm 0.00 in0.0 mm
07:15 PM 65.6°F18.7°C 44.3°F6.8°C 46% 2.9 mph N4.7 kmh N 4.3 mph6.9 kmh 30.31 in1026.4 mb 0.00 in0.0 mm 0.00 in0.0 mm 0.00 in0.0 mm
07:20 PM 65.5°F18.6°C 44.1°F6.7°C 46% 2.5 mph NNE4.0 kmh NNE 4.3 mph6.9 kmh 30.31 in1026.4 mb 0.00 in0.0 mm 0.00 in0.0 mm 0.00 in0.0 mm
07:25 PM 65.5°F18.6°C 44.2°F6.8°C 46% 2.7 mph NNE4.3 kmh NNE 6.3 mph10.1 kmh 30.31 in1026.4 mb 0.00 in0.0 mm 0.00 in0.0 mm 0.00 in0.0 mm
07:30 PM 65.5°F18.6°C 44.3°F6.8°C 46% 3.1 mph NNE5.0 kmh NNE 5.8 mph9.3 kmh 30.31 in1026.4 mb 0.00 in0.0 mm 0.00 in0.0 mm 0.00 in0.0 mm
07:35 PM 65.1°F18.4°C 44.1°F6.7°C 47% 3.3 mph N5.3 kmh N 7.6 mph12.2 kmh 30.31 in1026.4 mb 0.00 in0.0 mm 0.00 in0.0 mm 0.00 in0.0 mm
07:40 PM 65.1°F18.4°C 43.8°F6.6°C 46% 3.6 mph NNW5.8 kmh NNW 4.7 mph7.6 kmh 30.31 in1026.4 mb 0.00 in0.0 mm 0.00 in0.0 mm 0.00 in0.0 mm
07:45 PM 65.1°F18.4°C 43.6°F6.4°C 46% 3.6 mph NNW5.8 kmh NNW 9.2 mph14.8 kmh 30.31 in1026.4 mb 0.00 in0.0 mm 0.00 in0.0 mm 0.00 in0.0 mm
07:50 PM 65.3°F18.5°C 43.4°F6.3°C 45% 3.6 mph NW5.8 kmh NW 10.3 mph16.6 kmh 30.31 in1026.4 mb 0.00 in0.0 mm 0.00 in0.0 mm 0.00 in0.0 mm
07:55 PM 65.9°F18.8°C 43.2°F6.2°C 44% 4.1 mph NW6.6 kmh NW 10.7 mph17.2 kmh 30.31 in1026.4 mb 0.00 in0.0 mm 0.00 in0.0 mm 0.00 in0.0 mm
08:00 PM 66.8°F19.3°C 43.1°F6.2°C 42% 5.4 mph NW8.7 kmh NW 9.2 mph14.8 kmh 30.31 in1026.4 mb 0.00 in0.0 mm 0.00 in0.0 mm 0.00 in0.0 mm
08:05 PM 66.0°F18.9°C 43.4°F6.3°C 44% 5.5 mph NW8.9 kmh NW 7.4 mph11.9 kmh 30.31 in1026.4 mb 0.00 in0.0 mm 0.00 in0.0 mm 0.00 in0.0 mm
08:10 PM 64.9°F18.3°C 43.6°F6.4°C 46% 5.8 mph NW9.3 kmh NW 5.8 mph9.3 kmh 30.32 in1026.8 mb 0.00 in0.0 mm 0.00 in0.0 mm 0.00 in0.0 mm
08:15 PM 64.6°F18.1°C 43.4°F6.3°C 46% 4.7 mph NW7.6 kmh NW 5.8 mph9.3 kmh 30.32 in1026.8 mb 0.00 in0.0 mm 0.00 in0.0 mm 0.00 in0.0 mm
08:20 PM 64.6°F18.1°C 43.5°F6.4°C 46% 2.0 mph ESE3.2 kmh ESE 4.0 mph6.4 kmh 30.32 in1026.8 mb 0.00 in0.0 mm 0.00 in0.0 mm 0.00 in0.0 mm
08:25 PM 64.3°F17.9°C 43.7°F6.5°C 47% 1.9 mph ESE3.1 kmh ESE 4.0 mph6.4 kmh 30.32 in1026.8 mb 0.00 in0.0 mm 0.00 in0.0 mm 0.00 in0.0 mm
08:30 PM 64.3°F17.9°C 43.3°F6.3°C 46% 1.8 mph ESE2.9 kmh ESE 4.0 mph6.4 kmh 30.32 in1026.8 mb 0.00 in0.0 mm 0.00 in0.0 mm 0.00 in0.0 mm
08:35 PM 64.6°F18.1°C 43.5°F6.4°C 46% 2.1 mph SE3.4 kmh SE 6.9 mph11.1 kmh 30.32 in1026.8 mb 0.00 in0.0 mm 0.00 in0.0 mm 0.00 in0.0 mm
08:40 PM 64.8°F18.2°C 43.5°F6.4°C 46% 2.9 mph SSW4.7 kmh SSW 4.7 mph7.6 kmh 30.32 in1026.8 mb 0.00 in0.0 mm 0.00 in0.0 mm 0.00 in0.0 mm
08:45 PM 65.0°F18.3°C 43.2°F6.2°C 45% 3.2 mph SSW5.1 kmh SSW 6.3 mph10.1 kmh 30.32 in1026.8 mb 0.00 in0.0 mm 0.00 in0.0 mm 0.00 in0.0 mm
08:50 PM 65.4°F18.6°C 43.2°F6.2°C 45% 4.0 mph SW6.4 kmh SW 6.3 mph10.1 kmh 30.32 in1026.8 mb 0.00 in0.0 mm 0.00 in0.0 mm 0.00 in0.0 mm
08:55 PM 66.0°F18.9°C 43.4°F6.3°C 44% 4.1 mph SW6.6 kmh SW 8.5 mph13.7 kmh 30.32 in1026.8 mb 0.00 in0.0 mm 0.00 in0.0 mm 0.00 in0.0 mm
09:00 PM 65.8°F18.8°C 43.7°F6.5°C 45% 4.3 mph SSW6.9 kmh SSW 6.5 mph10.5 kmh 30.32 in1026.8 mb 0.00 in0.0 mm 0.00 in0.0 mm 0.00 in0.0 mm
09:05 PM 65.7°F18.7°C 43.7°F6.5°C 45% 4.3 mph SSW6.9 kmh SSW 4.7 mph7.6 kmh 30.32 in1026.8 mb 0.00 in0.0 mm 0.00 in0.0 mm 0.00 in0.0 mm
09:10 PM 65.7°F18.7°C 43.9°F6.6°C 45% 4.3 mph S6.9 kmh S 5.8 mph9.3 kmh 30.33 in1027.1 mb 0.00 in0.0 mm 0.00 in0.0 mm 0.00 in0.0 mm
09:15 PM 65.8°F18.8°C 43.9°F6.6°C 45% 3.9 mph S6.3 kmh S 7.6 mph12.2 kmh 30.33 in1027.1 mb 0.00 in0.0 mm 0.00 in0.0 mm 0.00 in0.0 mm
09:20 PM 65.8°F18.8°C 43.9°F6.6°C 45% 3.1 mph WSW5.0 kmh WSW 11.4 mph18.3 kmh 30.33 in1027.1 mb 0.00 in0.0 mm 0.00 in0.0 mm 0.00 in0.0 mm
09:25 PM 65.7°F18.7°C 44.0°F6.7°C 45% 4.2 mph WSW6.8 kmh WSW 12.3 mph19.8 kmh 30.33 in1027.1 mb 0.00 in0.0 mm 0.00 in0.0 mm 0.00 in0.0 mm
09:30 PM 65.8°F18.8°C 44.4°F6.9°C 46% 6.9 mph W11.1 kmh W 13.0 mph20.9 kmh 30.33 in1027.1 mb 0.00 in0.0 mm 0.00 in0.0 mm 0.00 in0.0 mm
09:35 PM 66.0°F18.9°C 44.6°F7.0°C 46% 7.7 mph W12.4 kmh W 13.0 mph20.9 kmh 30.33 in1027.1 mb 0.00 in0.0 mm 0.00 in0.0 mm 0.00 in0.0 mm
09:40 PM 66.0°F18.9°C 44.6°F7.0°C 46% 9.6 mph W15.4 kmh W 13.6 mph21.9 kmh 30.33 in1027.1 mb 0.00 in0.0 mm 0.00 in0.0 mm 0.00 in0.0 mm
09:45 PM 66.0°F18.9°C 44.6°F7.0°C 46% 9.9 mph W15.9 kmh W 14.8 mph23.8 kmh 30.33 in1027.1 mb 0.00 in0.0 mm 0.00 in0.0 mm 0.00 in0.0 mm
09:50 PM 66.0°F18.9°C 44.6°F7.0°C 46% 10.7 mph WSW17.2 kmh WSW 15.9 mph25.6 kmh 30.33 in1027.1 mb 0.00 in0.0 mm 0.00 in0.0 mm 0.00 in0.0 mm
09:55 PM 66.2°F19.0°C 44.7°F7.1°C 46% 11.2 mph WSW18.0 kmh WSW 19.0 mph30.6 kmh 30.33 in1027.1 mb 0.00 in0.0 mm 0.00 in0.0 mm 0.00 in0.0 mm
10:00 PM 66.5°F19.2°C 44.5°F6.9°C 45% 12.3 mph WSW19.8 kmh WSW 21.3 mph34.3 kmh 30.33 in1027.1 mb 0.00 in0.0 mm 0.00 in0.0 mm 0.00 in0.0 mm
10:05 PM 66.6°F19.2°C 44.6°F7.0°C 45% 12.8 mph WSW20.6 kmh WSW 16.8 mph27.0 kmh 30.33 in1027.1 mb 0.00 in0.0 mm 0.00 in0.0 mm 0.00 in0.0 mm
10:10 PM 66.5°F19.2°C 44.5°F6.9°C 45% 14.1 mph WSW22.7 kmh WSW 14.1 mph22.7 kmh 30.33 in1027.1 mb 0.00 in0.0 mm 0.00 in0.0 mm 0.00 in0.0 mm
10:15 PM 66.4°F19.1°C 44.4°F6.9°C 45% 12.5 mph WSW20.1 kmh WSW 14.1 mph22.7 kmh 30.33 in1027.1 mb 0.00 in0.0 mm 0.00 in0.0 mm 0.00 in0.0 mm
10:20 PM 66.2°F19.0°C 44.2°F6.8°C 45% 8.7 mph W14.0 kmh W 11.9 mph19.2 kmh 30.33 in1027.1 mb 0.00 in0.0 mm 0.00 in0.0 mm 0.00 in0.0 mm
10:25 PM 66.1°F18.9°C 44.1°F6.7°C 45% 8.7 mph W14.0 kmh W 12.5 mph20.1 kmh 30.33 in1027.1 mb 0.00 in0.0 mm 0.00 in0.0 mm 0.00 in0.0 mm
10:30 PM 66.0°F18.9°C 44.1°F6.7°C 45% 8.7 mph W14.0 kmh W 12.5 mph20.1 kmh 30.33 in1027.1 mb 0.00 in0.0 mm 0.00 in0.0 mm 0.00 in0.0 mm
10:35 PM 66.0°F18.9°C 44.2°F6.8°C 45% 8.7 mph W14.0 kmh W 15.2 mph24.5 kmh 30.33 in1027.1 mb 0.00 in0.0 mm 0.00 in0.0 mm 0.00 in0.0 mm
10:40 PM 66.0°F18.9°C 44.6°F7.0°C 46% 8.7 mph WSW14.0 kmh WSW 13.6 mph21.9 kmh 30.33 in1027.1 mb 0.00 in0.0 mm 0.00 in0.0 mm 0.00 in0.0 mm
10:45 PM 66.0°F18.9°C 44.6°F7.0°C 46% 9.3 mph WSW15.0 kmh WSW 16.8 mph27.0 kmh 30.33 in1027.1 mb 0.00 in0.0 mm 0.00 in0.0 mm 0.00 in0.0 mm
10:50 PM 66.0°F18.9°C 44.6°F7.0°C 46% 10.7 mph W17.2 kmh W 14.8 mph23.8 kmh 30.33 in1027.1 mb 0.00 in0.0 mm 0.00 in0.0 mm 0.00 in0.0 mm
10:55 PM 66.0°F18.9°C 44.6°F7.0°C 46% 10.9 mph W17.5 kmh W 17.4 mph28.0 kmh 30.33 in1027.1 mb 0.00 in0.0 mm 0.00 in0.0 mm 0.00 in0.0 mm
11:00 PM 66.0°F18.9°C 44.6°F7.0°C 46% 11.4 mph W18.3 kmh W 19.2 mph30.9 kmh 30.33 in1027.1 mb 0.00 in0.0 mm 0.00 in0.0 mm 0.00 in0.0 mm
11:05 PM 66.0°F18.9°C 44.6°F7.0°C 46% 11.9 mph W19.2 kmh W 18.1 mph29.1 kmh 30.33 in1027.1 mb 0.00 in0.0 mm 0.00 in0.0 mm 0.00 in0.0 mm
11:10 PM 65.9°F18.8°C 44.5°F6.9°C 46% 13.0 mph WSW20.9 kmh WSW 21.3 mph34.3 kmh 30.33 in1027.1 mb 0.00 in0.0 mm 0.00 in0.0 mm 0.00 in0.0 mm
11:15 PM 65.8°F18.8°C 44.5°F6.9°C 46% 13.2 mph WSW21.2 kmh WSW 19.2 mph30.9 kmh 30.33 in1027.1 mb 0.00 in0.0 mm 0.00 in0.0 mm 0.00 in0.0 mm
11:20 PM 65.7°F18.7°C 44.4°F6.9°C 46% 13.6 mph WSW21.9 kmh WSW 15.7 mph25.3 kmh 30.33 in1027.1 mb 0.00 in0.0 mm 0.00 in0.0 mm 0.00 in0.0 mm
11:25 PM 65.5°F18.6°C 44.2°F6.8°C 46% 13.3 mph WSW21.4 kmh WSW 16.3 mph26.2 kmh 30.34 in1027.4 mb 0.00 in0.0 mm 0.00 in0.0 mm 0.00 in0.0 mm
11:30 PM 65.2°F18.4°C 44.3°F6.8°C 47% 12.3 mph WSW19.8 kmh WSW 13.6 mph21.9 kmh 30.34 in1027.4 mb 0.00 in0.0 mm 0.00 in0.0 mm 0.00 in0.0 mm
11:35 PM 64.9°F18.3°C 44.2°F6.8°C 47% 11.7 mph WSW18.8 kmh WSW 17.0 mph27.4 kmh 30.34 in1027.4 mb 0.00 in0.0 mm 0.00 in0.0 mm 0.00 in0.0 mm
11:40 PM 64.6°F18.1°C 44.0°F6.7°C 47% 10.3 mph WSW16.6 kmh WSW 19.2 mph30.9 kmh 30.33 in1027.1 mb 0.00 in0.0 mm 0.00 in0.0 mm 0.00 in0.0 mm
11:45 PM 64.6°F18.1°C 44.4°F6.9°C 48% 10.7 mph WSW17.2 kmh WSW 19.2 mph30.9 kmh 30.33 in1027.1 mb 0.00 in0.0 mm 0.00 in0.0 mm 0.00 in0.0 mm
11:50 PM 64.3°F17.9°C 44.2°F6.8°C 48% 11.9 mph WSW19.2 kmh WSW 15.9 mph25.6 kmh 30.33 in1027.1 mb 0.00 in0.0 mm 0.00 in0.0 mm 0.00 in0.0 mm
11:55 PM 64.1°F17.8°C 44.0°F6.7°C 48% 11.7 mph WSW18.8 kmh WSW 18.1 mph29.1 kmh 30.33 in1027.1 mb 0.00 in0.0 mm 0.00 in0.0 mm 0.00 in0.0 mm